Time;durP1;ratioP1;P1;durP2;ratioP2;P2;SDS_P1;SDS_P2;PMS_P1;PMS_P2;Temp;Humidity;BMP_temperature;BMP_pressure;BME280_temperature;BME280_humidity;BME280_pressure;Samples;Min_cycle;Max_cycle;Signal;HPM_P1;HPM_P2
2023/03/30 00:01:18;;;;;;;10.60;2.57;;;15.60;89.30;;;;;;5087881;28;20440;-69
2023/03/30 00:03:46;;;;;;;18.13;3.10;;;15.70;88.30;;;;;;5089487;28;20427;-69
2023/03/30 00:06:19;;;;;;;9.80;2.50;;;15.70;89.40;;;;;;5089476;28;20493;-68
2023/03/30 00:08:45;;;;;;;11.20;2.80;;;15.60;89.10;;;;;;5089681;28;20827;-69
2023/03/30 00:11:14;;;;;;;13.00;3.23;;;15.60;89.50;;;;;;5089608;28;20428;-70
2023/03/30 00:13:40;;;;;;;19.13;3.13;;;15.70;89.70;;;;;;5089883;28;20444;-69
2023/03/30 00:16:08;;;;;;;9.80;2.50;;;15.70;89.60;;;;;;5089829;28;20460;-68
2023/03/30 00:18:35;;;;;;;12.63;2.93;;;15.60;92.00;;;;;;5088098;28;20689;-68
2023/03/30 00:21:02;;;;;;;11.20;3.07;;;15.60;92.00;;;;;;5089894;28;20852;-68
2023/03/30 00:23:28;;;;;;;15.63;3.40;;;15.50;92.40;;;;;;5089794;28;20490;-69
2023/03/30 00:25:55;;;;;;;9.33;2.30;;;15.50;91.90;;;;;;5089612;28;20420;-69
2023/03/30 00:28:21;;;;;;;15.33;2.70;;;15.50;92.50;;;;;;5089449;28;20903;-68
2023/03/30 00:30:48;;;;;;;13.87;3.00;;;15.40;93.30;;;;;;5089257;28;20460;-68
2023/03/30 00:33:14;;;;;;;15.63;3.50;;;15.30;94.20;;;;;;5089046;28;20473;-69
2023/03/30 00:35:40;;;;;;;24.30;3.90;;;15.30;94.30;;;;;;5087510;28;20452;-69
2023/03/30 00:38:05;;;;;;;8.73;2.27;;;15.30;94.30;;;;;;5088790;28;20947;-69
2023/03/30 00:40:33;;;;;;;11.57;2.23;;;15.30;95.20;;;;;;5088710;28;20178;-69
2023/03/30 00:43:04;;;;;;;16.43;3.67;;;15.40;93.90;;;;;;5087699;28;20209;-69
2023/03/30 00:45:32;;;;;;;20.50;2.63;;;15.50;93.10;;;;;;5088902;28;20406;-69
2023/03/30 00:48:14;;;;;;;16.30;3.80;;;15.80;92.00;;;;;;5088848;28;20413;-69
2023/03/30 00:50:48;;;;;;;18.10;3.50;;;15.80;92.90;;;;;;5088620;28;20444;-69
2023/03/30 00:53:27;;;;;;;13.10;3.03;;;15.70;92.80;;;;;;5088884;28;20413;-69
2023/03/30 00:55:55;;;;;;;25.83;3.70;;;15.90;92.30;;;;;;5088671;28;20593;-68
2023/03/30 00:58:22;;;;;;;19.10;2.70;;;15.80;93.00;;;;;;5088710;28;20468;-69
2023/03/30 01:00:48;;;;;;;24.63;3.70;;;15.70;93.50;;;;;;5088693;28;20429;-69
2023/03/30 01:03:31;;;;;;;21.63;3.93;;;15.80;93.40;;;;;;5089808;28;20921;-69
2023/03/30 01:05:58;;;;;;;12.73;3.20;;;15.70;93.90;;;;;;5093257;28;21209;-69
2023/03/30 01:08:31;;;;;;;15.73;2.87;;;15.70;94.20;;;;;;5091552;28;20413;-69
2023/03/30 01:11:00;;;;;;;19.33;2.97;;;15.70;94.50;;;;;;5093364;28;20437;-69
2023/03/30 01:13:28;;;;;;;12.60;2.93;;;15.80;93.80;;;;;;5092017;28;20448;-69
2023/03/30 01:16:17;;;;;;;12.63;3.43;;;15.80;94.10;;;;;;5090859;28;20487;-69
2023/03/30 01:19:02;;;;;;;16.77;3.70;;;15.80;94.20;;;;;;5088785;28;20508;-69
2023/03/30 01:21:41;;;;;;;19.43;3.60;;;15.90;94.00;;;;;;5088804;28;20772;-69
2023/03/30 01:24:29;;;;;;;27.43;3.97;;;16.00;93.80;;;;;;5089391;28;20420;-69
2023/03/30 01:27:07;;;;;;;17.87;2.73;;;15.90;94.20;;;;;;5089544;28;20405;-69
2023/03/30 01:29:57;;;;;;;26.83;4.43;;;15.90;94.10;;;;;;5089056;28;20770;-69
2023/03/30 01:32:49;;;;;;;18.70;4.33;;;16.00;93.80;;;;;;5093642;28;20456;-69
2023/03/30 01:35:33;;;;;;;19.77;2.97;;;15.90;94.00;;;;;;5088684;28;20468;-68
2023/03/30 01:38:30;;;;;;;10.67;4.00;;;15.80;97.20;;;;;;5092325;28;20479;-69
2023/03/30 01:41:02;;;;;;;12.23;3.00;;;15.60;99.90;;;;;;5092108;28;20450;-68
2023/03/30 01:43:47;;;;;;;17.27;4.07;;;15.40;99.90;;;;;;5092080;28;20417;-69
2023/03/30 01:46:39;;;;;;;22.90;3.60;;;15.30;99.90;;;;;;5092074;28;20421;-68
2023/03/30 01:49:21;;;;;;;28.13;3.40;;;15.30;99.90;;;;;;5091983;28;20458;-69
2023/03/30 01:52:09;;;;;;;18.17;3.67;;;15.10;99.90;;;;;;5074293;28;20448;-69
2023/03/30 01:54:54;;;;;;;12.50;3.80;;;14.90;99.90;;;;;;5091740;28;20408;-69
2023/03/30 01:57:35;;;;;;;16.97;3.70;;;14.70;99.90;;;;;;5090478;28;20847;-69
2023/03/30 02:00:14;;;;;;;11.70;2.70;;;14.60;99.90;;;;;;5091647;28;20427;-69
2023/03/30 02:02:53;;;;;;;18.60;3.20;;;14.50;99.90;;;;;;5091505;28;20774;-69
2023/03/30 02:05:21;;;;;;;22.23;3.60;;;14.40;99.90;;;;;;5091541;28;21183;-69
2023/03/30 02:07:54;;;;;;;20.67;4.47;;;14.10;99.90;;;;;;5091573;28;20421;-68
2023/03/30 02:10:23;;;;;;;14.63;3.40;;;14.20;99.90;;;;;;5091394;28;20428;-68
2023/03/30 02:12:50;;;;;;;19.50;3.00;;;14.00;99.90;;;;;;5091566;28;21235;-69
2023/03/30 02:15:17;;;;;;;27.17;4.27;;;14.00;99.90;;;;;;5091331;28;20456;-69
2023/03/30 02:17:46;;;;;;;14.27;3.97;;;13.90;99.90;;;;;;5089625;28;20423;-69
2023/03/30 02:20:15;;;;;;;23.30;4.13;;;13.80;99.90;;;;;;5091441;28;20420;-69
2023/03/30 02:22:41;;;;;;;20.47;3.90;;;13.80;99.90;;;;;;5091159;28;20866;-69
2023/03/30 02:25:07;;;;;;;15.77;3.23;;;13.80;99.90;;;;;;5091139;28;20914;-69
2023/03/30 02:27:33;;;;;;;20.50;3.60;;;13.80;99.90;;;;;;5089719;28;20451;-69
2023/03/30 02:29:59;;;;;;;15.83;3.30;;;13.90;99.90;;;;;;5091298;28;20426;-69
2023/03/30 02:32:35;;;;;;;15.10;2.60;;;13.90;99.90;;;;;;5091019;28;21118;-69
2023/03/30 02:35:35;;;;;;;13.07;3.27;;;14.00;99.90;;;;;;5089524;28;20219;-69
2023/03/30 02:38:35;;;;;;;26.40;4.30;;;14.10;99.90;;;;;;5090968;28;20430;-69
2023/03/30 02:41:00;;;;;;;15.60;3.00;;;14.10;99.90;;;;;;5090965;28;20430;-69
2023/03/30 02:43:35;;;;;;;12.87;2.77;;;14.20;99.90;;;;;;5090315;28;20805;-69
2023/03/30 02:46:13;;;;;;;9.63;2.53;;;14.30;99.90;;;;;;5089276;28;20191;-69
2023/03/30 02:49:10;;;;;;;23.97;3.43;;;14.30;99.90;;;;;;5089448;28;20813;-69
2023/03/30 02:51:40;;;;;;;18.20;3.33;;;14.20;99.90;;;;;;5090940;28;20840;-69
2023/03/30 02:54:33;;;;;;;15.43;3.23;;;14.30;99.90;;;;;;5090788;28;20423;-69
2023/03/30 02:57:04;;;;;;;15.93;3.80;;;14.20;99.90;;;;;;5090725;28;20444;-69
2023/03/30 02:59:51;;;;;;;34.87;4.80;;;14.30;99.90;;;;;;5089551;28;20452;-69
2023/03/30 03:02:30;;;;;;;24.43;4.00;;;14.30;99.90;;;;;;5090799;28;20448;-68
2023/03/30 03:04:56;;;;;;;23.77;4.20;;;14.30;99.90;;;;;;5088834;28;20423;-69
2023/03/30 03:07:24;;;;;;;17.90;3.30;;;14.20;99.90;;;;;;5090588;28;20420;-69
2023/03/30 03:09:50;;;;;;;21.70;4.33;;;14.20;99.90;;;;;;5090336;28;20416;-68
2023/03/30 03:12:15;;;;;;;13.00;3.90;;;14.10;99.90;;;;;;5090153;28;20467;-68
2023/03/30 03:14:42;;;;;;;24.03;3.70;;;14.00;99.90;;;;;;5088809;28;20186;-69
2023/03/30 03:17:08;;;;;;;16.03;4.03;;;13.80;99.90;;;;;;5090172;28;20213;-69
2023/03/30 03:19:34;;;;;;;19.13;4.10;;;13.80;99.90;;;;;;5090245;28;20432;-69
2023/03/30 03:22:00;;;;;;;23.10;3.70;;;13.80;99.90;;;;;;5090022;28;20436;-69
2023/03/30 03:24:25;;;;;;;15.63;3.07;;;13.70;99.90;;;;;;5088562;28;20465;-68
2023/03/30 03:26:51;;;;;;;16.40;3.97;;;13.50;99.90;;;;;;5090212;28;20427;-68
2023/03/30 03:29:17;;;;;;;21.73;3.80;;;13.30;99.90;;;;;;5088501;28;20190;-69
2023/03/30 03:31:42;;;;;;;18.87;3.60;;;13.20;99.90;;;;;;5088585;28;20497;-68
2023/03/30 03:34:08;;;;;;;21.00;3.83;;;13.20;99.90;;;;;;5089919;28;20235;-68
2023/03/30 03:36:34;;;;;;;10.53;2.90;;;13.30;99.90;;;;;;5089836;28;20247;-69
2023/03/30 03:38:59;;;;;;;16.53;3.30;;;13.50;99.90;;;;;;5089641;28;20273;-69
2023/03/30 03:41:25;;;;;;;18.23;4.10;;;13.50;99.90;;;;;;5088343;28;20217;-68
2023/03/30 03:43:51;;;;;;;28.83;3.77;;;13.50;99.90;;;;;;5089739;28;20189;-70
2023/03/30 03:46:16;;;;;;;21.50;3.97;;;13.40;99.90;;;;;;5071343;28;20197;-69
2023/03/30 03:48:42;;;;;;;16.53;3.37;;;13.30;99.90;;;;;;5089566;28;20687;-69
2023/03/30 03:51:08;;;;;;;13.40;3.43;;;13.30;99.90;;;;;;5089598;28;20223;-69
2023/03/30 03:53:34;;;;;;;15.83;3.23;;;13.40;99.90;;;;;;5087177;28;20185;-70
2023/03/30 03:56:00;;;;;;;14.07;2.77;;;13.40;99.90;;;;;;5089448;28;20463;-69
2023/03/30 03:58:26;;;;;;;11.73;2.60;;;13.40;99.90;;;;;;5089320;28;20182;-69
2023/03/30 04:00:58;;;;;;;17.07;3.60;;;13.40;99.90;;;;;;5089582;28;20456;-69
2023/03/30 04:03:24;;;;;;;11.73;3.03;;;13.40;99.90;;;;;;5089435;28;20619;-69
2023/03/30 04:05:50;;;;;;;12.83;3.73;;;13.40;99.90;;;;;;5089240;28;20508;-69
2023/03/30 04:08:16;;;;;;;14.47;3.20;;;13.30;99.90;;;;;;5087865;28;20517;-70
2023/03/30 04:10:42;;;;;;;12.30;3.20;;;13.40;99.90;;;;;;5087849;28;20635;-69
2023/03/30 04:13:08;;;;;;;12.40;2.90;;;13.40;99.90;;;;;;5087977;28;20434;-69
2023/03/30 04:15:34;;;;;;;14.73;2.90;;;13.50;99.90;;;;;;5089324;28;20477;-68
2023/03/30 04:18:00;;;;;;;19.90;3.13;;;13.50;99.90;;;;;;5087793;28;21076;-69
2023/03/30 04:20:27;;;;;;;17.47;3.93;;;13.50;99.90;;;;;;5089257;28;20498;-68
2023/03/30 04:22:53;;;;;;;18.77;3.80;;;13.60;99.90;;;;;;5088004;28;20181;-69
2023/03/30 04:25:27;;;;;;;22.73;4.00;;;13.50;99.90;;;;;;5089421;28;20473;-68
2023/03/30 04:27:54;;;;;;;17.07;3.40;;;13.60;99.90;;;;;;5088199;28;20512;-69
2023/03/30 04:30:21;;;;;;;15.43;3.67;;;13.70;99.90;;;;;;5088515;28;20447;-69
2023/03/30 04:32:53;;;;;;;16.33;3.10;;;13.70;99.90;;;;;;5088339;28;20471;-69
2023/03/30 04:35:19;;;;;;;21.57;3.60;;;13.70;99.90;;;;;;5088446;28;20486;-68
2023/03/30 04:37:45;;;;;;;20.10;3.83;;;13.60;99.90;;;;;;5088160;28;20451;-69
2023/03/30 04:40:12;;;;;;;14.63;3.40;;;13.70;99.90;;;;;;5088379;28;20471;-69
2023/03/30 04:42:38;;;;;;;21.43;3.90;;;13.70;99.90;;;;;;5088483;28;20945;-69
2023/03/30 04:45:09;;;;;;;15.60;4.20;;;13.70;99.90;;;;;;5088400;28;20569;-69
2023/03/30 04:47:34;;;;;;;16.97;3.70;;;13.60;99.90;;;;;;5088377;28;20463;-69
2023/03/30 04:50:01;;;;;;;19.43;3.27;;;13.60;99.90;;;;;;5086792;28;20454;-68
2023/03/30 04:52:27;;;;;;;12.43;3.57;;;13.70;99.90;;;;;;5088000;28;20448;-68
2023/03/30 04:54:53;;;;;;;14.90;4.03;;;13.70;99.90;;;;;;5088011;28;20472;-68
2023/03/30 04:57:19;;;;;;;20.33;4.20;;;13.60;99.90;;;;;;5088128;28;20430;-69
2023/03/30 04:59:45;;;;;;;14.27;3.73;;;13.50;99.90;;;;;;5086497;28;20434;-69
2023/03/30 05:02:11;;;;;;;25.70;4.30;;;13.50;99.90;;;;;;5088100;28;20447;-69
2023/03/30 05:04:38;;;;;;;17.60;3.23;;;13.50;99.90;;;;;;5088037;28;21016;-68
2023/03/30 05:07:05;;;;;;;20.37;3.67;;;13.70;99.90;;;;;;5091966;28;20419;-69
2023/03/30 05:09:30;;;;;;;23.60;4.20;;;13.60;99.90;;;;;;5073788;28;20420;-70
2023/03/30 05:11:56;;;;;;;31.90;5.93;;;13.70;99.90;;;;;;5091825;28;20476;-69
2023/03/30 05:14:22;;;;;;;12.57;3.33;;;13.70;99.90;;;;;;5091956;28;20193;-69
2023/03/30 05:16:47;;;;;;;12.03;3.37;;;13.70;99.90;;;;;;5090477;28;20236;-68
2023/03/30 05:19:13;;;;;;;20.17;4.00;;;13.70;99.90;;;;;;5090024;28;20192;-68
2023/03/30 05:21:39;;;;;;;16.30;3.37;;;13.70;99.90;;;;;;5089644;28;20224;-68
2023/03/30 05:24:04;;;;;;;18.23;4.20;;;13.70;99.90;;;;;;5089830;28;20197;-69
2023/03/30 05:26:30;;;;;;;22.40;4.17;;;13.70;99.90;;;;;;5089824;28;20193;-69
2023/03/30 05:28:56;;;;;;;21.40;4.20;;;13.70;99.90;;;;;;5091043;28;20220;-69
2023/03/30 05:31:22;;;;;;;13.73;3.80;;;13.70;99.90;;;;;;5091002;28;20597;-69
2023/03/30 05:33:47;;;;;;;16.97;3.53;;;13.60;99.90;;;;;;5090990;28;20430;-69
2023/03/30 05:36:13;;;;;;;12.70;3.83;;;13.60;99.90;;;;;;5091087;28;20260;-69
2023/03/30 05:38:39;;;;;;;16.20;2.90;;;13.60;99.90;;;;;;5091174;28;20300;-66
2023/03/30 05:41:05;;;;;;;16.30;3.67;;;13.50;99.90;;;;;;5091090;28;20198;-68
2023/03/30 05:43:34;;;;;;;15.90;3.90;;;13.50;99.90;;;;;;5091159;28;20413;-68
2023/03/30 05:46:01;;;;;;;10.80;3.10;;;13.60;99.90;;;;;;5091198;28;20198;-67
2023/03/30 05:48:27;;;;;;;12.83;3.00;;;13.60;99.90;;;;;;5073289;28;20436;-67
2023/03/30 05:50:53;;;;;;;13.57;3.00;;;13.60;99.90;;;;;;5089467;28;20450;-68
2023/03/30 05:53:18;;;;;;;16.03;3.30;;;13.60;99.90;;;;;;5090831;28;20431;-69
2023/03/30 05:55:45;;;;;;;11.63;3.07;;;13.50;99.90;;;;;;5090676;28;20206;-69
2023/03/30 05:58:12;;;;;;;17.23;2.93;;;13.60;99.90;;;;;;5090744;28;20181;-68
2023/03/30 06:00:40;;;;;;;19.20;3.90;;;13.60;99.90;;;;;;5091260;28;20526;-68
2023/03/30 06:03:09;;;;;;;15.97;3.30;;;13.60;99.90;;;;;;5090812;28;20461;-69
2023/03/30 06:05:40;;;;;;;10.87;2.93;;;13.50;99.90;;;;;;5089493;28;20515;-69
2023/03/30 06:08:09;;;;;;;18.10;3.40;;;13.50;99.90;;;;;;5090833;28;20606;-69
2023/03/30 06:10:36;;;;;;;11.40;3.20;;;13.60;99.90;;;;;;5090422;28;20923;-69
2023/03/30 06:13:02;;;;;;;21.47;3.30;;;13.60;99.90;;;;;;5090429;28;20455;-69
2023/03/30 06:15:28;;;;;;;15.00;4.40;;;13.60;99.90;;;;;;5090450;28;20521;-68
2023/03/30 06:17:53;;;;;;;16.53;3.90;;;13.60;99.90;;;;;;5089660;28;20253;-68
2023/03/30 06:20:23;;;;;;;16.80;3.43;;;13.60;99.90;;;;;;5090926;28;20873;-68
2023/03/30 06:22:49;;;;;;;18.30;3.23;;;13.60;99.90;;;;;;5090586;28;20239;-68
2023/03/30 06:25:15;;;;;;;14.80;3.27;;;13.50;99.90;;;;;;5090876;28;20416;-68
2023/03/30 06:27:41;;;;;;;12.30;3.10;;;13.60;99.90;;;;;;5090856;28;20995;-68
2023/03/30 06:30:10;;;;;;;10.97;2.63;;;13.60;99.90;;;;;;5091235;28;20425;-68
2023/03/30 06:32:36;;;;;;;13.23;3.20;;;13.60;99.90;;;;;;5091159;28;20203;-68
2023/03/30 06:35:02;;;;;;;11.27;3.63;;;13.60;99.90;;;;;;5089714;28;20538;-68
2023/03/30 06:37:30;;;;;;;20.83;3.53;;;13.60;99.90;;;;;;5090590;28;20443;-68
2023/03/30 06:39:56;;;;;;;11.13;3.30;;;13.40;99.90;;;;;;5090506;28;20477;-68
2023/03/30 06:42:22;;;;;;;12.77;3.93;;;13.40;99.90;;;;;;5090406;28;20440;-69
2023/03/30 06:44:48;;;;;;;18.07;3.60;;;13.40;99.90;;;;;;5090217;28;20218;-69
2023/03/30 06:47:14;;;;;;;14.93;3.13;;;13.40;99.90;;;;;;5090448;28;20413;-69
2023/03/30 06:49:40;;;;;;;11.97;3.00;;;13.40;99.90;;;;;;5090085;28;20784;-68
2023/03/30 06:52:06;;;;;;;23.27;3.90;;;13.30;99.90;;;;;;5089529;28;20450;-69
2023/03/30 06:54:31;;;;;;;11.37;3.63;;;13.50;99.90;;;;;;5088138;28;20943;-69
2023/03/30 06:56:57;;;;;;;19.13;4.07;;;13.50;99.90;;;;;;5088084;28;20224;-69
2023/03/30 06:59:23;;;;;;;15.60;3.60;;;13.60;99.90;;;;;;5089612;28;20228;-68
2023/03/30 07:01:49;;;;;;;14.00;3.27;;;13.60;99.90;;;;;;5089275;28;20205;-69
2023/03/30 07:04:14;;;;;;;14.93;3.30;;;13.80;99.90;;;;;;5087915;28;20182;-69
2023/03/30 07:06:40;;;;;;;15.63;3.40;;;13.90;99.90;;;;;;5089793;28;20424;-69
2023/03/30 07:09:06;;;;;;;12.80;2.77;;;14.10;99.90;;;;;;5089852;28;20193;-69
2023/03/30 07:11:32;;;;;;;13.17;3.27;;;14.20;99.90;;;;;;5089544;28;20202;-68
2023/03/30 07:13:59;;;;;;;7.30;2.80;;;14.40;99.90;;;;;;5089282;28;20453;-69
2023/03/30 07:16:26;;;;;;;15.97;2.93;;;14.50;99.90;;;;;;5087406;28;20221;-68
2023/03/30 07:18:51;;;;;;;15.67;3.70;;;14.60;99.90;;;;;;5089013;28;20413;-67
2023/03/30 07:21:18;;;;;;;12.47;3.13;;;14.50;99.90;;;;;;5088680;28;20671;-69
2023/03/30 07:23:43;;;;;;;19.13;4.10;;;14.60;99.90;;;;;;5088930;28;20259;-68
2023/03/30 07:26:09;;;;;;;24.60;4.20;;;14.50;99.90;;;;;;5088713;28;21062;-68
2023/03/30 07:28:37;;;;;;;23.83;4.43;;;14.30;99.90;;;;;;5088777;28;20189;-69
2023/03/30 07:31:08;;;;;;;12.53;2.97;;;14.10;99.90;;;;;;5087026;28;20456;-69
2023/03/30 07:33:35;;;;;;;21.63;4.37;;;13.90;99.90;;;;;;5088772;28;20597;-68
2023/03/30 07:36:02;;;;;;;23.37;3.60;;;14.00;99.90;;;;;;5088535;28;20547;-68
2023/03/30 07:38:28;;;;;;;16.87;4.40;;;13.90;99.90;;;;;;5088427;28;20467;-69
2023/03/30 07:40:54;;;;;;;10.63;2.90;;;13.90;99.90;;;;;;5088317;28;20434;-68
2023/03/30 07:43:19;;;;;;;15.77;3.47;;;13.90;99.90;;;;;;5088617;28;20522;-69
2023/03/30 07:45:45;;;;;;;23.40;3.87;;;13.90;99.90;;;;;;5088350;28;20424;-68
2023/03/30 07:48:11;;;;;;;13.10;3.30;;;13.80;99.90;;;;;;5087464;28;20681;-68
2023/03/30 07:50:36;;;;;;;11.67;2.80;;;13.70;99.90;;;;;;5087423;28;20553;-68
2023/03/30 07:53:02;;;;;;;16.77;3.50;;;13.70;99.90;;;;;;5088511;28;20182;-69
2023/03/30 07:55:28;;;;;;;13.13;2.93;;;13.70;99.90;;;;;;5088348;28;20221;-68
2023/03/30 07:57:55;;;;;;;19.20;4.80;;;13.70;99.90;;;;;;5086831;28;20193;-69
2023/03/30 08:00:21;;;;;;;13.80;4.90;;;13.80;99.90;;;;;;5088134;28;20416;-68
2023/03/30 08:02:46;;;;;;;20.10;4.30;;;13.90;99.90;;;;;;5086964;28;20424;-68
2023/03/30 08:05:14;;;;;;;14.20;3.07;;;14.10;99.90;;;;;;5088232;28;20429;-68
2023/03/30 08:07:40;;;;;;;17.47;3.30;;;14.30;99.90;;;;;;5086615;28;20187;-69
2023/03/30 08:10:06;;;;;;;18.60;3.80;;;14.50;99.90;;;;;;5088088;28;20427;-68
2023/03/30 08:12:33;;;;;;;20.73;3.30;;;14.50;99.90;;;;;;5088199;28;20443;-68
2023/03/30 08:15:00;;;;;;;13.23;3.67;;;14.50;99.90;;;;;;5088223;28;20575;-69
2023/03/30 08:17:25;;;;;;;14.37;3.47;;;14.40;99.90;;;;;;5088358;28;20412;-69
2023/03/30 08:19:51;;;;;;;17.60;3.50;;;14.40;99.90;;;;;;5088301;28;21212;-68
2023/03/30 08:22:17;;;;;;;21.50;3.90;;;14.40;99.90;;;;;;5088281;28;20944;-69
2023/03/30 08:24:42;;;;;;;15.10;3.13;;;14.30;99.90;;;;;;5088192;28;20540;-68
2023/03/30 08:27:08;;;;;;;11.70;3.10;;;14.30;99.90;;;;;;5088543;28;20659;-68
2023/03/30 08:29:34;;;;;;;19.37;4.70;;;14.30;99.90;;;;;;5088633;28;20197;-68
2023/03/30 08:32:00;;;;;;;13.37;4.20;;;14.20;99.90;;;;;;5088241;28;20272;-68
2023/03/30 08:34:26;;;;;;;27.30;5.07;;;14.10;99.90;;;;;;5088221;28;20184;-68
2023/03/30 08:36:51;;;;;;;14.37;3.57;;;14.10;99.90;;;;;;5088307;28;20238;-68
2023/03/30 08:39:17;;;;;;;21.43;4.40;;;14.00;99.90;;;;;;5069950;28;20569;-68
2023/03/30 08:42:02;;;;;;;18.57;4.07;;;13.90;99.90;;;;;;5088000;28;20216;-69
2023/03/30 08:44:33;;;;;;;14.20;3.77;;;13.80;99.90;;;;;;5088516;28;20206;-69
2023/03/30 08:47:03;;;;;;;15.83;3.80;;;13.70;99.90;;;;;;5088585;28;20491;-69
2023/03/30 08:49:34;;;;;;;16.40;4.10;;;13.60;99.90;;;;;;5088607;28;20439;-68
2023/03/30 08:52:03;;;;;;;15.03;3.97;;;13.40;99.90;;;;;;5088647;28;20478;-68
2023/03/30 08:54:31;;;;;;;13.20;4.50;;;13.40;99.90;;;;;;5088626;28;20851;-68
2023/03/30 08:57:22;;;;;;;12.23;3.80;;;13.30;99.90;;;;;;5087217;28;20468;-68
2023/03/30 09:00:06;;;;;;;19.10;5.80;;;13.20;99.90;;;;;;5087104;28;20428;-69
2023/03/30 09:02:35;;;;;;;13.10;4.60;;;13.10;99.90;;;;;;5088315;28;20447;-68
2023/03/30 09:05:30;;;;;;;17.97;3.80;;;13.10;99.90;;;;;;5088190;28;20412;-68
2023/03/30 09:08:21;;;;;;;19.40;4.60;;;13.10;99.90;;;;;;5086753;28;20424;-67
2023/03/30 09:11:03;;;;;;;24.30;4.30;;;13.10;99.90;;;;;;5086926;28;20545;-68
2023/03/30 09:13:36;;;;;;;13.53;4.10;;;13.00;99.90;;;;;;5088196;28;20935;-68
2023/03/30 09:16:15;;;;;;;16.93;4.83;;;13.00;99.90;;;;;;5086566;28;20964;-68
2023/03/30 09:18:43;;;;;;;14.30;5.13;;;12.90;99.90;;;;;;5088028;28;20450;-68
2023/03/30 09:21:11;;;;;;;12.20;4.30;;;12.90;99.90;;;;;;5087925;28;20951;-68
2023/03/30 09:23:38;;;;;;;9.73;4.00;;;12.80;99.90;;;;;;5086584;28;20422;-68
2023/03/30 09:26:13;;;;;;;7.60;2.67;;;12.80;99.90;;;;;;5087825;28;20428;-69
2023/03/30 09:29:12;;;;;;;8.97;2.27;;;12.70;99.90;;;;;;5087678;28;20427;-69
2023/03/30 09:31:50;;;;;;;8.60;2.20;;;12.60;99.90;;;;;;5042555;28;20507;-68
2023/03/30 09:34:27;;;;;;;7.23;2.87;;;12.60;99.90;;;;;;5087176;28;20423;-68
2023/03/30 09:37:02;;;;;;;4.80;2.10;;;12.50;99.90;;;;;;5087020;28;21072;-67
2023/03/30 09:39:30;;;;;;;5.50;2.73;;;12.40;99.90;;;;;;5087123;28;20491;-69
2023/03/30 09:42:20;;;;;;;8.83;2.60;;;12.30;99.90;;;;;;5086916;28;20533;-69
2023/03/30 09:44:59;;;;;;;4.37;2.33;;;12.20;99.90;;;;;;5086916;28;20419;-68
2023/03/30 09:47:35;;;;;;;7.30;2.80;;;12.10;99.90;;;;;;5087098;28;20422;-68
2023/03/30 09:50:23;;;;;;;10.33;2.63;;;12.10;99.90;;;;;;5086956;28;20417;-68
2023/03/30 09:53:01;;;;;;;7.33;2.60;;;12.10;99.90;;;;;;5088423;28;20926;-68
2023/03/30 09:55:31;;;;;;;11.40;2.83;;;12.10;99.90;;;;;;5090140;28;20472;-68
2023/03/30 09:58:12;;;;;;;4.53;2.20;;;12.00;99.90;;;;;;5090512;28;20447;-68
2023/03/30 10:00:38;;;;;;;9.00;2.37;;;12.00;99.90;;;;;;5090384;28;20420;-69
2023/03/30 10:03:06;;;;;;;4.63;2.57;;;12.00;99.90;;;;;;5090644;28;20487;-68
2023/03/30 10:05:34;;;;;;;5.90;2.60;;;12.00;99.90;;;;;;5090403;28;20452;-68
2023/03/30 10:08:02;;;;;;;7.87;2.37;;;12.10;99.90;;;;;;5089225;28;20426;-68
2023/03/30 10:10:35;;;;;;;4.93;2.50;;;12.20;99.90;;;;;;5090679;28;20434;-69
2023/03/30 10:13:14;;;;;;;4.87;2.13;;;12.30;99.90;;;;;;5090616;28;20508;-68
2023/03/30 10:15:43;;;;;;;3.57;2.20;;;12.40;99.90;;;;;;5090630;28;20514;-68
2023/03/30 10:18:28;;;;;;;9.00;2.17;;;12.50;99.90;;;;;;5090470;28;20425;-69
2023/03/30 10:21:13;;;;;;;4.53;2.20;;;12.60;99.90;;;;;;5090013;28;20433;-69
2023/03/30 10:23:43;;;;;;;3.90;1.93;;;12.80;99.90;;;;;;5090347;28;21040;-69
2023/03/30 10:26:17;;;;;;;4.23;2.00;;;12.90;99.90;;;;;;5088520;28;20443;-69
2023/03/30 10:29:04;;;;;;;3.80;1.87;;;12.90;99.90;;;;;;5090251;28;20499;-69
2023/03/30 10:31:36;;;;;;;2.97;2.10;;;13.00;99.90;;;;;;5089966;28;20564;-69
2023/03/30 10:34:04;;;;;;;2.70;2.00;;;13.00;99.90;;;;;;5089955;28;20592;-69
2023/03/30 10:36:39;;;;;;;4.70;2.83;;;13.10;99.90;;;;;;5089718;28;20463;-69
2023/03/30 10:39:24;;;;;;;8.50;2.40;;;13.10;99.90;;;;;;5089594;28;20530;-69
2023/03/30 10:41:51;;;;;;;10.80;2.20;;;13.10;99.90;;;;;;5088373;28;20924;-69
2023/03/30 10:44:29;;;;;;;5.63;2.57;;;13.20;99.90;;;;;;5089915;28;20460;-69
2023/03/30 10:47:24;;;;;;;4.90;2.37;;;13.20;99.90;;;;;;5089675;28;20430;-69
2023/03/30 10:50:12;;;;;;;3.80;1.73;;;13.30;99.90;;;;;;5076957;28;20427;-69
2023/03/30 10:53:05;;;;;;;5.23;2.27;;;13.30;99.90;;;;;;5088291;28;20442;-69
2023/03/30 10:55:43;;;;;;;8.60;2.57;;;13.30;99.90;;;;;;5089266;28;20483;-69
2023/03/30 10:58:33;;;;;;;3.37;2.23;;;13.30;99.90;;;;;;5089473;28;20441;-68
2023/03/30 11:01:19;;;;;;;8.33;2.97;;;13.40;99.90;;;;;;5089259;28;20454;-69
2023/03/30 11:03:51;;;;;;;4.33;2.23;;;13.50;99.90;;;;;;5089030;28;20416;-69
2023/03/30 11:06:26;;;;;;;9.77;2.60;;;13.50;99.90;;;;;;5089828;28;20408;-69
2023/03/30 11:08:54;;;;;;;6.53;2.67;;;13.50;99.90;;;;;;5088268;28;20439;-68
2023/03/30 11:11:38;;;;;;;6.53;2.90;;;13.50;99.90;;;;;;5089694;28;20955;-69
2023/03/30 11:14:17;;;;;;;4.63;3.73;;;13.60;99.90;;;;;;5089734;28;20802;-68
2023/03/30 11:16:56;;;;;;;9.87;2.60;;;13.50;99.90;;;;;;5089215;28;20460;-69
2023/03/30 11:19:27;;;;;;;6.00;2.73;;;13.50;99.90;;;;;;5089325;28;20481;-68
2023/03/30 11:22:08;;;;;;;11.60;2.63;;;13.50;99.90;;;;;;5089034;28;20435;-69
2023/03/30 11:24:35;;;;;;;2.23;1.93;;;13.60;99.90;;;;;;5088932;28;20472;-69
2023/03/30 11:27:03;;;;;;;4.20;2.00;;;13.50;99.90;;;;;;5089123;28;20485;-68
2023/03/30 11:29:56;;;;;;;8.20;2.43;;;13.60;99.90;;;;;;5088886;28;20426;-69
2023/03/30 11:32:35;;;;;;;8.70;2.47;;;13.70;99.90;;;;;;5088933;28;20476;-69
2023/03/30 11:35:29;;;;;;;7.10;2.70;;;13.70;99.90;;;;;;5088734;28;21062;-69
2023/03/30 11:38:01;;;;;;;4.10;2.20;;;13.80;99.90;;;;;;5088644;28;20444;-68
2023/03/30 11:40:39;;;;;;;3.03;1.83;;;14.00;99.90;;;;;;5088771;28;20791;-69
2023/03/30 11:43:09;;;;;;;8.60;3.20;;;14.00;99.90;;;;;;5089100;28;20411;-68
2023/03/30 11:45:41;;;;;;;7.90;2.17;;;14.00;99.90;;;;;;5088703;28;20912;-69
2023/03/30 11:48:21;;;;;;;8.77;2.33;;;14.10;99.90;;;;;;5088779;28;20430;-69
2023/03/30 11:51:12;;;;;;;9.87;3.03;;;14.30;99.90;;;;;;5087287;28;20436;-68
2023/03/30 11:53:56;;;;;;;6.53;3.10;;;14.40;99.90;;;;;;5089392;28;20426;-68
2023/03/30 11:56:27;;;;;;;4.77;2.60;;;14.40;99.90;;;;;;5089000;28;20471;-68
2023/03/30 11:59:01;;;;;;;9.93;3.03;;;14.50;99.90;;;;;;5088876;28;20511;-69
2023/03/30 12:01:55;;;;;;;6.83;2.87;;;14.50;99.90;;;;;;5088747;28;20933;-69
2023/03/30 12:04:30;;;;;;;10.10;3.23;;;14.30;99.90;;;;;;5088484;28;20774;-69
2023/03/30 12:07:03;;;;;;;10.20;3.07;;;14.40;99.90;;;;;;5088480;28;20497;-70
2023/03/30 12:09:48;;;;;;;7.43;3.43;;;14.30;99.90;;;;;;5088286;28;20424;-69
2023/03/30 12:12:32;;;;;;;9.87;3.33;;;14.20;99.90;;;;;;5088259;28;20440;-69
2023/03/30 12:15:25;;;;;;;4.43;2.47;;;14.10;99.90;;;;;;5087698;28;20473;-69
2023/03/30 12:18:34;;;;;;;6.60;3.20;;;14.10;99.90;;;;;;5088544;28;20400;-69
2023/03/30 12:21:24;;;;;;;11.63;3.37;;;14.10;99.90;;;;;;5056427;28;20451;-69
2023/03/30 12:24:16;;;;;;;7.00;3.10;;;14.20;99.90;;;;;;5088501;28;20447;-69
2023/03/30 12:26:42;;;;;;;14.17;3.87;;;14.30;99.90;;;;;;5057011;28;20511;-69
2023/03/30 12:29:13;;;;;;;6.30;2.97;;;14.50;99.90;;;;;;5088526;28;20458;-69
2023/03/30 12:31:54;;;;;;;8.10;3.53;;;14.70;99.90;;;;;;5088416;28;20440;-69
2023/03/30 12:34:35;;;;;;;8.30;2.87;;;14.80;99.90;;;;;;5088290;28;20408;-69
2023/03/30 12:37:01;;;;;;;4.57;3.20;;;14.60;99.90;;;;;;5088297;28;20464;-70
2023/03/30 12:40:07;;;;;;;11.93;3.83;;;14.60;99.90;;;;;;5086040;28;20528;-69
2023/03/30 12:42:38;;;;;;;8.73;2.83;;;14.60;99.90;;;;;;5064656;28;20443;-69
2023/03/30 12:45:30;;;;;;;8.53;2.93;;;14.60;99.90;;;;;;5087669;28;20413;-69
2023/03/30 12:48:04;;;;;;;5.50;2.50;;;14.50;99.90;;;;;;5087667;28;20420;-68
2023/03/30 12:50:40;;;;;;;6.43;2.23;;;14.80;99.90;;;;;;5087982;28;20408;-69
2023/03/30 12:53:27;;;;;;;5.20;2.30;;;15.00;99.90;;;;;;5086396;28;20447;-70
2023/03/30 12:56:25;;;;;;;8.00;2.40;;;15.10;99.90;;;;;;5087960;28;21029;-69
2023/03/30 12:59:30;;;;;;;7.23;2.43;;;15.10;99.90;;;;;;5055658;28;20435;-69
2023/03/30 13:02:30;;;;;;;9.70;2.83;;;15.00;99.90;;;;;;5085517;28;20462;-69
2023/03/30 13:04:56;;;;;;;5.93;2.80;;;15.30;99.90;;;;;;5087134;28;20452;-69
2023/03/30 13:07:26;;;;;;;4.80;2.00;;;15.80;99.90;;;;;;5085593;28;20429;-69